Time;durP1;ratioP1;P1;durP2;ratioP2;P2;SDS_P1;SDS_P2;PMS_P1;PMS_P2;Temp;Humidity;BMP_temperature;BMP_pressure;BME280_temperature;BME280_humidity;BME280_pressure;Samples;Min_cycle;Max_cycle;Signal;HPM_P1;HPM_P2
2022/06/06 00:02:19;;;;;;;6.00;3.67;;;;;;;25.53;48.08;98422.66;4994857;28;20050;-79
2022/06/06 00:04:45;;;;;;;7.25;3.60;;;;;;;25.48;47.92;98431.34;4993551;28;20508;-78
2022/06/06 00:07:10;;;;;;;5.60;3.45;;;;;;;25.46;48.34;98439.56;4960726;28;20173;-79
2022/06/06 00:09:36;;;;;;;6.80;3.28;;;;;;;25.46;48.37;98444.91;4993373;28;20034;-79
2022/06/06 00:12:02;;;;;;;5.78;3.50;;;;;;;25.41;48.22;98441.25;4993268;28;20444;-79
2022/06/06 00:14:28;;;;;;;6.53;3.50;;;;;;;25.44;48.08;98444.34;4977073;28;20096;-79
2022/06/06 00:16:53;;;;;;;8.75;3.90;;;;;;;25.41;48.23;98435.91;4976428;28;20502;-79
2022/06/06 00:19:19;;;;;;;6.95;3.45;;;;;;;25.40;48.15;98439.66;4994209;28;20433;-79
2022/06/06 00:21:44;;;;;;;7.40;3.97;;;;;;;25.34;48.47;98444.00;4976769;28;20038;-79
2022/06/06 00:24:11;;;;;;;5.65;3.20;;;;;;;25.32;48.41;98445.25;4977082;28;20147;-78
2022/06/06 00:26:36;;;;;;;5.22;3.40;;;;;;;25.36;48.61;98449.94;4976770;28;20068;-79
2022/06/06 00:29:03;;;;;;;5.35;3.33;;;;;;;25.30;48.78;98437.44;4994578;28;20462;-79
2022/06/06 00:36:58;;;;;;;6.35;3.63;;;;;;;25.22;48.86;98445.72;4992993;28;20121;-79
2022/06/06 00:39:23;;;;;;;7.97;3.90;;;;;;;25.19;48.99;98440.81;4976541;28;20104;-79
2022/06/06 00:41:50;;;;;;;8.02;3.72;;;;;;;25.18;49.07;98439.19;4976284;28;20061;-79
2022/06/06 00:44:19;;;;;;;5.57;3.77;;;;;;;25.16;49.00;98428.72;4976383;28;20489;-79
2022/06/06 00:47:16;;;;;;;9.02;3.78;;;;;;;25.19;49.40;98430.97;4992425;28;20022;-79
2022/06/06 00:49:44;;;;;;;4.20;3.33;;;;;;;25.16;49.53;98430.56;4972963;28;20042;-80
2022/06/06 00:52:38;;;;;;;4.97;3.67;;;;;;;25.07;49.70;98422.84;4993013;28;20053;-79
2022/06/06 00:55:08;;;;;;;6.00;3.72;;;;;;;25.14;49.73;98429.97;4992072;28;20035;-79
2022/06/06 00:57:35;;;;;;;7.72;3.47;;;;;;;25.09;49.85;98422.63;4992417;28;20121;-79
2022/06/06 01:00:03;;;;;;;8.95;3.78;;;;;;;25.13;49.95;98433.69;4976285;28;20486;-79
2022/06/06 01:02:28;;;;;;;6.40;3.45;;;;;;;25.16;49.63;98430.56;4976389;28;20038;-79
2022/06/06 01:04:54;;;;;;;6.47;3.58;;;;;;;25.08;50.13;98432.50;4976040;28;20037;-79
2022/06/06 01:07:19;;;;;;;8.90;3.67;;;;;;;25.09;49.82;98411.94;4975448;28;20034;-79
2022/06/06 01:09:45;;;;;;;6.85;3.97;;;;;;;25.15;50.06;98412.94;4976828;28;20512;-79
2022/06/06 01:12:13;;;;;;;7.30;3.67;;;;;;;25.14;50.23;98412.09;4991783;28;20030;-79
2022/06/06 01:14:48;;;;;;;6.45;3.47;;;;;;;25.13;49.69;98410.47;4992171;28;20132;-79
2022/06/06 01:17:49;;;;;;;7.65;3.42;;;;;;;25.17;49.60;98408.19;4975441;28;20034;-75
2022/06/06 01:20:17;;;;;;;7.63;3.40;;;;;;;25.15;49.44;98405.72;4984188;28;20049;-79
2022/06/06 01:23:04;;;;;;;6.32;3.40;;;;;;;25.12;49.63;98390.13;4993314;28;20026;-79
2022/06/06 01:25:51;;;;;;;5.85;3.15;;;;;;;25.16;49.96;98393.19;4993380;28;20030;-79
2022/06/06 01:28:39;;;;;;;9.27;3.43;;;;;;;25.17;49.92;98384.13;4992620;28;20058;-80
2022/06/06 01:31:32;;;;;;;6.82;3.30;;;;;;;25.12;49.91;98381.31;4993143;28;20030;-79
2022/06/06 01:33:59;;;;;;;6.22;3.15;;;;;;;25.13;49.77;98388.28;4992403;28;20027;-79
2022/06/06 01:36:27;;;;;;;6.07;3.17;;;;;;;25.16;50.00;98383.34;4991868;28;20034;-79
2022/06/06 01:38:53;;;;;;;6.88;3.20;;;;;;;25.21;49.85;98393.34;4991850;28;20468;-75
2022/06/06 01:41:43;;;;;;;5.95;3.08;;;;;;;25.18;49.67;98386.59;4974729;28;20521;-78
2022/06/06 01:44:35;;;;;;;7.57;3.30;;;;;;;25.16;49.69;98379.81;4991523;28;20116;-78
2022/06/06 01:47:03;;;;;;;3.65;3.05;;;;;;;25.16;49.71;98388.69;4975362;28;20490;-78
2022/06/06 01:49:29;;;;;;;5.97;2.85;;;;;;;25.13;49.63;98385.59;4991682;28;20474;-78
2022/06/06 01:52:02;;;;;;;5.68;3.20;;;;;;;25.07;49.80;98377.44;4975526;28;20040;-78
2022/06/06 01:54:28;;;;;;;6.53;3.03;;;;;;;25.03;49.66;98370.94;4991624;28;20035;-78
2022/06/06 01:56:53;;;;;;;5.22;3.10;;;;;;;25.03;49.93;98376.28;4975805;28;20037;-78
2022/06/06 01:59:19;;;;;;;4.70;3.20;;;;;;;24.99;50.13;98376.91;4991939;28;20072;-78
2022/06/06 02:01:44;;;;;;;5.90;3.38;;;;;;;24.97;50.14;98370.97;4991005;28;20042;-78
2022/06/06 02:04:11;;;;;;;5.03;2.97;;;;;;;24.97;49.80;98371.81;4974806;28;20034;-78
2022/06/06 02:06:39;;;;;;;5.70;2.70;;;;;;;25.00;49.68;98373.19;4991840;28;20041;-78
2022/06/06 02:09:04;;;;;;;5.25;2.97;;;;;;;24.94;49.86;98356.22;4975344;28;20034;-78
2022/06/06 02:11:30;;;;;;;4.97;2.90;;;;;;;24.95;49.79;98354.34;4975307;28;20096;-78
2022/06/06 02:13:55;;;;;;;6.18;3.10;;;;;;;24.98;49.72;98361.94;4991826;28;20412;-78
2022/06/06 02:16:21;;;;;;;6.75;3.00;;;;;;;24.97;49.73;98373.63;4975657;28;20478;-78
2022/06/06 02:18:46;;;;;;;5.03;2.90;;;;;;;24.92;49.70;98379.63;4991495;28;20058;-78
2022/06/06 02:21:12;;;;;;;4.03;3.03;;;;;;;24.87;49.59;98382.16;4991650;28;20065;-79
2022/06/06 02:23:37;;;;;;;6.95;3.20;;;;;;;24.84;49.37;98387.91;4991384;28;20478;-78
2022/06/06 02:26:03;;;;;;;7.15;3.35;;;;;;;24.73;49.52;98379.59;4991354;28;20023;-80
2022/06/06 02:28:28;;;;;;;5.18;3.33;;;;;;;24.68;49.48;98374.06;4974932;28;20105;-79
2022/06/06 02:30:54;;;;;;;8.88;2.92;;;;;;;24.74;49.58;98375.06;4991465;28;20065;-79
2022/06/06 02:33:19;;;;;;;5.72;3.25;;;;;;;24.78;49.30;98376.28;4992887;28;20455;-79
2022/06/06 02:35:45;;;;;;;6.50;3.10;;;;;;;24.87;49.04;98377.63;4975288;28;20034;-79
2022/06/06 02:38:11;;;;;;;5.68;3.03;;;;;;;24.88;49.15;98371.25;4991366;28;20379;-79
2022/06/06 02:40:37;;;;;;;5.38;2.92;;;;;;;24.96;49.11;98375.50;4977458;28;20134;-79
2022/06/06 02:43:02;;;;;;;6.05;3.15;;;;;;;25.03;49.22;98368.25;4995229;28;20126;-78
2022/06/06 02:45:28;;;;;;;4.60;3.33;;;;;;;25.03;49.27;98370.94;4994833;28;20080;-79
2022/06/06 02:47:55;;;;;;;6.70;3.08;;;;;;;25.07;48.75;98377.44;4995922;28;20087;-79
2022/06/06 02:50:23;;;;;;;7.97;3.13;;;;;;;25.09;49.16;98375.38;4994700;28;20038;-78
2022/06/06 02:52:48;;;;;;;4.80;3.03;;;;;;;25.09;49.05;98377.22;4980256;28;20126;-79
2022/06/06 02:55:14;;;;;;;8.07;3.13;;;;;;;25.16;48.91;98382.50;4996017;28;20332;-79
2022/06/06 02:57:41;;;;;;;7.47;3.35;;;;;;;25.21;49.08;98380.81;4994764;28;20100;-79
2022/06/06 03:00:08;;;;;;;9.90;3.30;;;;;;;25.26;48.75;98382.81;4978367;28;20038;-79
2022/06/06 03:02:35;;;;;;;6.05;3.15;;;;;;;25.32;49.04;98383.81;4977847;28;20109;-79
2022/06/06 03:05:01;;;;;;;4.45;3.00;;;;;;;25.32;49.14;98379.31;4994248;28;20052;-79
2022/06/06 03:07:45;;;;;;;7.28;3.20;;;;;;;25.39;49.11;98380.03;4992482;28;20042;-80
2022/06/06 03:10:33;;;;;;;9.10;3.20;;;;;;;25.44;49.16;98372.19;4994409;28;20034;-79
2022/06/06 03:13:10;;;;;;;5.18;3.10;;;;;;;25.43;49.36;98364.41;4982074;28;20088;-78
2022/06/06 03:20:46;;;;;;;4.40;3.10;;;;;;;25.47;49.50;98365.56;4994725;28;20117;-72
2022/06/06 03:21:37;;;;;;;5.47;3.28;;;;;;;25.70;49.81;98362.22;4935569;29;20047;-73
2022/06/06 03:24:25;;;;;;;14.20;3.45;;;;;;;25.89;49.35;98373.72;4935551;29;20095;-73
2022/06/06 03:27:11;;;;;;;7.13;2.97;;;;;;;26.00;49.56;98383.66;4934125;29;20047;-72
2022/06/06 03:29:52;;;;;;;6.63;3.05;;;;;;;26.22;49.13;98396.56;4900242;29;20052;-72
2022/06/06 03:32:44;;;;;;;7.05;2.90;;;;;;;26.36;48.59;98403.34;4916152;29;20036;-74
2022/06/06 03:35:34;;;;;;;9.45;3.10;;;;;;;26.44;48.27;98401.38;4914554;29;20052;-72
2022/06/06 03:38:17;;;;;;;5.28;2.88;;;;;;;26.42;48.35;98406.97;4916383;29;20036;-76
2022/06/06 03:41:04;;;;;;;25.55;5.60;;;;;;;26.40;49.11;98416.28;4926464;28;20108;-81
2022/06/06 03:43:57;;;;;;;49.08;8.77;;;;;;;26.48;49.45;98411.41;4938693;29;20047;-83
2022/06/06 03:46:56;;;;;;;35.50;8.27;;;;;;;26.51;49.03;98412.81;4934905;29;20040;-85
2022/06/06 03:50:03;;;;;;;43.42;7.68;;;;;;;26.36;49.53;98426.59;4935490;29;20027;-82
2022/06/06 03:52:34;;;;;;;17.53;5.07;;;;;;;26.13;49.66;98446.06;4877877;29;20064;-84
2022/06/06 03:55:12;;;;;;;15.80;4.53;;;;;;;25.87;50.64;98448.00;4874498;29;20682;-74
2022/06/06 03:57:38;;;;;;;28.27;6.28;;;;;;;25.97;50.85;98472.38;4874870;29;20041;-76
2022/06/06 04:00:12;;;;;;;23.35;6.55;;;;;;;26.12;50.63;98501.41;4879691;29;20067;-73
2022/06/06 04:02:37;;;;;;;20.02;5.55;;;;;;;26.18;50.19;98500.50;4880071;29;20497;-71
2022/06/06 04:05:06;;;;;;;19.95;5.60;;;;;;;26.21;49.71;98533.22;4884070;29;20080;-71
2022/06/06 04:07:33;;;;;;;18.52;5.53;;;;;;;26.26;49.56;98542.19;4880631;29;20560;-71
2022/06/06 04:09:59;;;;;;;16.90;5.25;;;;;;;26.26;49.58;98518.13;4880678;29;20520;-71
2022/06/06 04:12:39;;;;;;;18.52;5.20;;;;;;;26.30;49.38;98489.88;4880888;29;20060;-71
2022/06/06 04:15:13;;;;;;;14.68;5.05;;;;;;;26.30;49.57;98511.28;4897038;29;20448;-71
2022/06/06 04:18:03;;;;;;;12.18;4.28;;;;;;;26.30;49.61;98537.22;4881590;29;20100;-72
2022/06/06 04:20:47;;;;;;;14.95;5.10;;;;;;;26.26;49.65;98539.50;4896729;29;20519;-71
2022/06/06 04:23:12;;;;;;;14.13;4.45;;;;;;;26.26;49.64;98538.72;4880660;29;20035;-71
2022/06/06 04:25:46;;;;;;;13.90;4.50;;;;;;;26.20;49.74;98508.31;4896565;29;20103;-71
2022/06/06 04:28:26;;;;;;;16.48;4.75;;;;;;;26.19;49.46;98477.25;4928372;28;20138;-71
2022/06/06 04:31:23;;;;;;;13.57;4.60;;;;;;;26.16;49.32;98448.28;4973917;28;20053;-71
2022/06/06 04:34:08;;;;;;;13.82;4.20;;;;;;;26.11;49.71;98371.41;4973388;28;20023;-71
2022/06/06 04:36:43;;;;;;;10.55;3.33;;;;;;;26.08;49.47;98387.88;4973744;28;20026;-71
2022/06/06 04:39:14;;;;;;;8.70;3.50;;;;;;;26.06;49.49;98419.41;4973316;28;20023;-71
2022/06/06 04:41:59;;;;;;;8.73;3.78;;;;;;;26.04;49.79;98458.91;4984698;28;20060;-71
2022/06/06 04:45:03;;;;;;;10.00;3.20;;;;;;;26.05;49.46;98475.78;4992560;28;20030;-71
2022/06/06 04:47:36;;;;;;;13.50;3.25;;;;;;;26.02;49.58;98476.25;4933420;29;20127;-71
2022/06/06 04:50:11;;;;;;;9.73;3.28;;;;;;;26.07;49.44;98490.56;4902790;29;20119;-71
2022/06/06 04:52:38;;;;;;;9.13;3.08;;;;;;;26.05;49.52;98516.72;4917941;29;20055;-71
2022/06/06 04:55:06;;;;;;;10.57;3.17;;;;;;;26.08;49.27;98535.00;4902237;29;20531;-71
2022/06/06 04:57:31;;;;;;;8.23;2.92;;;;;;;26.13;49.34;98563.75;4901939;29;20138;-71
2022/06/06 04:59:57;;;;;;;8.50;2.90;;;;;;;26.13;49.18;98545.84;4902031;29;20542;-71
2022/06/06 05:02:23;;;;;;;8.07;2.92;;;;;;;26.15;48.99;98559.00;4901610;29;20477;-70
2022/06/06 05:04:48;;;;;;;9.20;2.70;;;;;;;26.18;48.98;98542.50;4901471;29;20043;-70
2022/06/06 05:07:29;;;;;;;7.60;2.67;;;;;;;26.23;49.06;98565.91;4917543;29;20099;-71
2022/06/06 05:10:10;;;;;;;10.98;2.70;;;;;;;26.23;48.52;98556.00;4933840;29;20027;-72
2022/06/06 05:12:54;;;;;;;6.57;2.53;;;;;;;26.30;48.24;98574.69;4902591;29;20036;-72
2022/06/06 05:15:40;;;;;;;10.55;2.70;;;;;;;26.33;48.13;98587.63;4933288;29;20239;-72
2022/06/06 05:18:11;;;;;;;4.85;2.10;;;;;;;26.37;48.50;98586.13;4933355;29;20047;-72
2022/06/06 05:21:05;;;;;;;8.77;2.60;;;;;;;26.43;48.22;98593.25;4917698;29;20114;-72
2022/06/06 05:23:47;;;;;;;6.38;2.22;;;;;;;26.46;48.24;98562.56;4946316;28;20097;-72
2022/06/06 05:26:41;;;;;;;6.85;2.30;;;;;;;26.50;47.83;98569.91;4987131;28;20027;-72
2022/06/06 05:29:06;;;;;;;7.28;2.28;;;;;;;26.53;47.83;98580.19;4978084;28;20442;-71
2022/06/06 05:31:41;;;;;;;8.15;2.10;;;;;;;26.58;47.83;98571.44;4989244;28;20034;-72
2022/06/06 05:34:19;;;;;;;8.25;2.50;;;;;;;26.62;47.41;98564.63;4976091;28;20074;-72
2022/06/06 05:36:53;;;;;;;3.95;1.77;;;;;;;26.69;47.20;98569.91;4959763;28;20053;-72
2022/06/06 05:39:55;;;;;;;5.38;2.03;;;;;;;26.76;47.57;98575.16;4990338;28;20038;-72
2022/06/06 05:42:57;;;;;;;4.10;1.80;;;;;;;26.85;47.22;98579.16;4989549;28;20461;-71
2022/06/06 05:45:27;;;;;;;5.78;1.92;;;;;;;26.87;47.23;98566.38;4930352;29;20713;-73
2022/06/06 05:48:17;;;;;;;4.10;1.80;;;;;;;26.97;47.28;98581.91;4917777;29;20138;-76
2022/06/06 05:51:01;;;;;;;5.38;1.73;;;;;;;27.06;46.83;98580.53;4918147;29;20488;-73
2022/06/06 05:53:44;;;;;;;11.02;1.90;;;;;;;27.19;46.64;98582.22;4933078;29;20039;-74
2022/06/06 05:56:12;;;;;;;9.07;1.95;;;;;;;27.35;45.87;98586.13;4932949;29;20083;-74
2022/06/06 05:59:22;;;;;;;7.30;1.70;;;;;;;27.67;45.44;98589.31;4932815;29;20031;-74
2022/06/06 06:02:09;;;;;;;6.18;1.73;;;;;;;28.28;44.63;98591.78;4857774;29;20591;-76
2022/06/06 06:04:52;;;;;;;9.13;1.80;;;;;;;28.56;44.93;98582.97;4827780;29;20075;-71
2022/06/06 06:07:57;;;;;;;10.43;1.48;;;;;;;28.66;44.32;98580.50;4828171;29;20053;-71
2022/06/06 06:10:47;;;;;;;5.90;1.48;;;;;;;29.77;41.90;98587.25;4828771;29;20083;-72
2022/06/06 06:13:43;;;;;;;7.63;1.60;;;;;;;31.44;38.86;98603.31;4842135;29;20036;-71
2022/06/06 06:16:09;;;;;;;7.22;2.55;;;;;;;32.80;35.72;98602.81;4861007;29;20084;-71
2022/06/06 06:18:47;;;;;;;14.80;2.30;;;;;;;33.64;34.03;98586.41;4815379;29;20038;-70
2022/06/06 06:21:19;;;;;;;12.73;2.90;;;;;;;34.57;31.96;98583.47;4867627;29;20561;-70
2022/06/06 06:23:54;;;;;;;12.48;2.83;;;;;;;35.71;30.34;98586.25;4886370;29;20040;-71
2022/06/06 06:26:19;;;;;;;13.98;3.03;;;;;;;36.83;28.46;98592.34;4870900;29;20047;-70
2022/06/06 06:28:45;;;;;;;19.02;3.88;;;;;;;37.73;27.22;98597.75;4885952;29;20146;-70
2022/06/06 06:31:39;;;;;;;13.35;3.53;;;;;;;38.89;25.80;98597.66;4886302;29;20108;-70
2022/06/06 06:34:26;;;;;;;10.43;3.10;;;;;;;39.87;24.25;98591.75;4901964;29;20032;-71
2022/06/06 06:37:14;;;;;;;14.57;3.10;;;;;;;40.64;23.59;98590.44;4927007;28;20108;-71
2022/06/06 06:40:00;;;;;;;19.30;3.30;;;;;;;41.46;22.73;98583.50;4975585;28;20027;-71
2022/06/06 06:42:49;;;;;;;15.68;2.85;;;;;;;42.04;21.34;98587.50;4978684;28;20129;-71
2022/06/06 06:45:19;;;;;;;10.70;2.47;;;;;;;42.57;21.01;98579.81;4974674;28;20043;-72
2022/06/06 06:47:50;;;;;;;8.23;2.50;;;;;;;42.62;20.66;98581.56;4974556;28;20074;-76
2022/06/06 06:50:25;;;;;;;8.55;2.28;;;;;;;42.95;20.35;98578.91;4958770;28;20051;-75
2022/06/06 06:53:15;;;;;;;7.78;2.40;;;;;;;43.19;20.13;98580.13;4926778;28;20605;-73
2022/06/06 06:56:06;;;;;;;9.98;2.03;;;;;;;42.43;20.56;98576.50;4973622;28;20490;-71
2022/06/06 06:58:53;;;;;;;20.65;1.90;;;;;;;42.89;19.96;98571.19;4970931;28;20422;-73
2022/06/06 07:08:32;;;;;;;7.72;2.33;;;;;;;42.62;20.05;98560.44;4958832;28;20125;-72
2022/06/06 07:10:24;;;;;;;11.27;1.70;;;;;;;41.71;21.38;98548.97;4960779;28;20422;-72
2022/06/06 07:13:20;;;;;;;5.72;1.60;;;;;;;41.00;21.87;98545.53;4974078;28;20043;-72
2022/06/06 07:15:52;;;;;;;4.55;1.33;;;;;;;40.66;22.23;98538.09;4974116;28;20061;-71
2022/06/06 07:18:19;;;;;;;4.10;1.27;;;;;;;40.01;22.92;98528.81;4925715;28;20066;-71
2022/06/06 07:20:45;;;;;;;;;;;;;;;39.82;23.63;98531.78;4926490;28;20043;-70
2022/06/06 07:23:13;;;;;;;4.30;1.63;;;;;;;39.88;23.55;98536.78;4993210;28;20484;-71
2022/06/06 07:25:45;;;;;;;5.95;1.65;;;;;;;39.67;23.80;98533.03;4993445;28;20030;-71
2022/06/06 07:28:22;;;;;;;6.57;1.80;;;;;;;39.58;24.05;98539.25;4993869;28;20513;-71
2022/06/06 07:31:15;;;;;;;6.20;2.23;;;;;;;39.76;23.98;98544.78;4977974;28;20038;-72
2022/06/06 07:34:02;;;;;;;6.40;2.20;;;;;;;40.15;23.79;98540.44;4994193;28;20270;-72
2022/06/06 07:36:46;;;;;;;;;;;;;;;40.37;23.45;98542.25;4994763;28;20520;-71
2022/06/06 07:39:34;;;;;;;8.30;2.53;;;;;;;40.72;23.52;98544.25;4995081;28;20283;-71
2022/06/06 07:42:12;;;;;;;8.10;2.10;;;;;;;40.99;22.56;98543.13;4994185;28;20030;-71
2022/06/06 07:44:56;;;;;;;5.70;1.92;;;;;;;41.13;22.64;98553.91;4995021;28;20034;-73
2022/06/06 07:47:33;;;;;;;5.75;2.00;;;;;;;41.27;22.36;98548.25;4994677;28;20119;-71
2022/06/06 07:50:13;;;;;;;6.53;1.73;;;;;;;40.99;22.56;98543.94;4995317;28;20030;-71
2022/06/06 07:53:16;;;;;;;10.23;2.00;;;;;;;40.28;23.55;98546.88;4977359;28;20117;-71
2022/06/06 07:56:23;;;;;;;6.43;2.00;;;;;;;39.84;23.93;98544.00;4993615;28;20402;-71
2022/06/06 07:58:56;;;;;;;5.47;2.10;;;;;;;39.67;24.38;98547.47;4973745;28;20080;-72
2022/06/06 08:01:24;;;;;;;4.43;1.80;;;;;;;39.63;24.16;98551.94;4940940;28;20034;-72
2022/06/06 08:03:51;;;;;;;5.70;2.00;;;;;;;39.06;24.79;98549.78;4973618;28;20046;-72
2022/06/06 08:06:22;;;;;;;5.57;1.90;;;;;;;38.37;25.49;98548.84;4940804;28;20106;-71
2022/06/06 08:09:04;;;;;;;3.80;1.92;;;;;;;37.74;26.43;98553.09;4973044;28;20042;-71
2022/06/06 08:11:58;;;;;;;3.88;2.13;;;;;;;37.09;27.17;98557.41;4956557;28;20143;-72
2022/06/06 08:15:05;;;;;;;4.18;2.00;;;;;;;36.58;28.06;98558.16;4956796;28;20117;-71
2022/06/06 08:17:43;;;;;;;4.88;2.20;;;;;;;36.03;28.81;98561.25;4972691;28;20055;-71
2022/06/06 08:20:30;;;;;;;8.18;2.28;;;;;;;35.76;29.30;98568.03;4941459;28;20031;-71
2022/06/06 08:22:57;;;;;;;3.90;2.10;;;;;;;35.40;29.69;98576.47;4973049;28;20034;-72
2022/06/06 08:25:22;;;;;;;;;;;;;;;35.03;30.89;98572.41;4925245;28;20031;-72
2022/06/06 08:27:50;;;;;;;11.43;2.35;;;;;;;34.72;31.10;98571.75;4956083;28;19925;-72
2022/06/06 08:30:15;;;;;;;;;;;;;;;34.47;31.36;98576.22;4925412;28;20038;-72
2022/06/06 08:32:42;;;;;;;4.47;1.88;;;;;;;34.23;31.80;98568.72;4956699;28;19984;-72
2022/06/06 08:35:08;;;;;;;4.43;2.20;;;;;;;34.00;32.22;98569.31;4987166;28;20046;-72
2022/06/06 08:37:33;;;;;;;3.13;1.95;;;;;;;33.83;32.62;98591.28;4992512;28;20030;-72
2022/06/06 08:40:40;;;;;;;5.38;2.20;;;;;;;33.85;32.56;98587.22;4993921;28;20030;-72
2022/06/06 08:43:17;;;;;;;6.72;2.13;;;;;;;33.61;33.29;98589.66;4992413;28;20101;-71
2022/06/06 08:45:50;;;;;;;4.57;2.15;;;;;;;33.31;33.65;98595.88;4992854;28;20036;-72
2022/06/06 08:48:35;;;;;;;5.30;2.17;;;;;;;33.10;34.02;98605.81;4992825;28;20030;-72
2022/06/06 08:51:18;;;;;;;5.50;2.10;;;;;;;32.85;34.60;98601.19;4993259;28;20037;-72
2022/06/06 08:53:58;;;;;;;5.80;2.20;;;;;;;32.67;34.88;98629.50;4993731;28;20030;-72
2022/06/06 08:56:55;;;;;;;4.82;2.22;;;;;;;32.51;34.69;98629.41;4993771;28;20453;-72
2022/06/06 08:59:39;;;;;;;5.32;2.30;;;;;;;32.39;34.07;98628.84;4976265;28;20066;-72
2022/06/06 09:02:21;;;;;;;6.40;1.90;;;;;;;32.20;34.33;98637.38;4993995;28;20034;-71
2022/06/06 09:05:28;;;;;;;4.63;2.08;;;;;;;32.12;34.43;98629.78;4975861;28;20026;-72
2022/06/06 09:08:21;;;;;;;5.50;1.85;;;;;;;32.58;34.05;98630.00;4971964;28;20039;-72
2022/06/06 09:11:07;;;;;;;7.18;1.80;;;;;;;32.91;32.95;98627.97;4971978;28;20043;-72
2022/06/06 09:14:20;;;;;;;5.88;1.80;;;;;;;33.08;32.42;98630.44;4971983;28;20150;-71
2022/06/06 09:17:03;;;;;;;6.15;1.88;;;;;;;33.12;32.17;98642.34;4914720;29;20421;-71
2022/06/06 09:19:56;;;;;;;3.75;1.75;;;;;;;33.23;32.27;98642.41;4914513;29;20139;-72
2022/06/06 09:22:33;;;;;;;6.30;1.50;;;;;;;33.42;31.89;98646.22;4914335;29;20036;-72
2022/06/06 09:25:17;;;;;;;4.35;1.40;;;;;;;33.51;31.63;98644.59;4914473;29;20097;-71
2022/06/06 09:28:03;;;;;;;2.47;1.30;;;;;;;33.53;31.80;98653.25;4914075;29;20146;-72
2022/06/06 09:30:53;;;;;;;4.27;1.43;;;;;;;33.32;32.10;98646.19;4914360;29;20063;-72
2022/06/06 09:33:37;;;;;;;2.63;1.20;;;;;;;33.24;32.03;98639.44;4914162;29;20035;-72
2022/06/06 09:36:17;;;;;;;2.63;1.15;;;;;;;33.50;31.54;98640.25;4914158;29;20051;-72
2022/06/06 09:38:59;;;;;;;4.07;1.00;;;;;;;33.49;31.64;98640.53;4914437;29;20040;-72
2022/06/06 09:41:30;;;;;;;2.25;1.20;;;;;;;33.41;31.76;98636.47;4913946;29;20059;-71
2022/06/06 09:44:09;;;;;;;5.70;1.38;;;;;;;33.41;31.60;98622.94;4917298;29;20438;-72
2022/06/06 09:46:59;;;;;;;5.15;1.08;;;;;;;33.34;31.62;98625.09;4903308;29;20381;-72
2022/06/06 09:49:24;;;;;;;5.65;1.20;;;;;;;33.41;31.59;98619.41;4903609;28;20519;-71
2022/06/06 09:52:08;;;;;;;2.13;1.10;;;;;;;33.50;31.34;98618.59;4993348;28;20030;-71
2022/06/06 10:00:31;;;;;;;4.60;1.30;;;;;;;33.40;31.22;98624.03;4993120;28;20038;-71
2022/06/06 10:03:16;;;;;;;2.28;1.10;;;;;;;33.33;31.25;98613.44;4991751;28;20037;-72
2022/06/06 10:06:13;;;;;;;2.08;1.10;;;;;;;33.23;31.12;98601.84;4992446;28;20029;-71
2022/06/06 10:08:47;;;;;;;3.70;1.20;;;;;;;33.14;31.44;98615.84;4991395;28;20030;-72
2022/06/06 10:12:03;;;;;;;2.97;1.30;;;;;;;33.05;31.50;98613.94;4991568;28;20026;-71
2022/06/06 10:14:49;;;;;;;2.40;1.00;;;;;;;33.06;31.64;98618.28;4971249;28;20113;-71
2022/06/06 10:17:36;;;;;;;2.22;1.20;;;;;;;32.95;31.82;98617.44;4954895;28;20146;-72
2022/06/06 10:20:16;;;;;;;2.93;1.27;;;;;;;32.85;31.88;98618.22;4955037;28;20449;-71
2022/06/06 10:22:50;;;;;;;2.85;1.10;;;;;;;32.79;32.35;98630.91;4939048;28;20353;-72
2022/06/06 10:25:39;;;;;;;3.53;1.05;;;;;;;32.74;31.89;98630.88;4970969;28;20148;-71
2022/06/06 10:28:24;;;;;;;2.28;1.02;;;;;;;32.57;32.12;98620.25;4970003;28;20495;-71
2022/06/06 10:31:08;;;;;;;1.65;0.90;;;;;;;32.49;32.46;98618.06;4938961;28;20038;-72
2022/06/06 10:33:36;;;;;;;2.15;0.90;;;;;;;32.36;32.26;98610.44;4954894;28;20549;-72
2022/06/06 10:36:20;;;;;;;5.93;0.82;;;;;;;32.18;32.45;98619.78;4970852;28;20051;-71
2022/06/06 10:39:10;;;;;;;3.45;0.90;;;;;;;31.98;32.88;98606.97;4955673;28;20035;-72
2022/06/06 10:42:00;;;;;;;2.17;0.80;;;;;;;31.87;33.23;98600.69;4954711;28;20039;-72
2022/06/06 10:44:40;;;;;;;2.38;0.80;;;;;;;31.88;33.03;98616.63;4971042;28;20030;-72
2022/06/06 10:47:37;;;;;;;4.40;1.00;;;;;;;31.87;33.40;98603.41;4971633;28;20126;-72
2022/06/06 10:50:15;;;;;;;1.30;0.82;;;;;;;31.86;33.64;98604.44;4975270;28;20034;-72
2022/06/06 10:52:46;;;;;;;3.50;0.90;;;;;;;31.90;33.47;98609.06;4991068;28;20038;-72
2022/06/06 10:55:45;;;;;;;1.85;0.90;;;;;;;31.90;32.96;98632.56;4991482;28;20439;-72
2022/06/06 10:58:19;;;;;;;2.33;0.98;;;;;;;31.85;33.31;98619.00;4992295;28;20401;-72
2022/06/06 11:00:56;;;;;;;2.85;0.85;;;;;;;31.84;33.28;98623.59;4992340;28;20030;-72
2022/06/06 11:03:38;;;;;;;2.30;0.90;;;;;;;31.82;33.11;98614.13;4978407;28;20041;-72
2022/06/06 11:06:53;;;;;;;1.70;0.98;;;;;;;31.85;33.01;98610.91;4979260;28;20478;-72
2022/06/06 11:09:38;;;;;;;1.77;0.80;;;;;;;31.89;32.92;98622.81;4958257;28;20035;-72
2022/06/06 11:12:22;;;;;;;3.80;0.98;;;;;;;31.96;32.77;98630.69;4942621;28;20031;-71
2022/06/06 11:14:47;;;;;;;6.00;1.10;;;;;;;31.98;32.77;98625.88;4973769;28;20487;-71
2022/06/06 11:17:31;;;;;;;2.45;0.80;;;;;;;32.02;32.79;98630.47;4957732;28;20026;-71
2022/06/06 11:20:44;;;;;;;4.38;1.00;;;;;;;32.08;32.63;98640.25;4973881;28;20470;-71
2022/06/06 11:23:24;;;;;;;5.30;1.13;;;;;;;32.15;32.78;98633.81;4916235;29;20028;-71
2022/06/06 11:26:16;;;;;;;0.82;0.70;;;;;;;32.15;32.70;98620.31;4916769;29;20036;-72
2022/06/06 11:28:49;;;;;;;4.60;0.90;;;;;;;32.16;32.69;98620.06;4914127;29;20048;-72
2022/06/06 11:31:26;;;;;;;2.28;1.10;;;;;;;32.18;32.74;98628.72;4916158;29;20509;-72
2022/06/06 11:34:10;;;;;;;3.00;0.90;;;;;;;32.16;32.51;98628.16;4916422;29;20085;-71
2022/06/06 11:36:45;;;;;;;2.35;0.93;;;;;;;32.14;32.52;98635.72;4916239;29;20043;-72
2022/06/06 11:39:34;;;;;;;1.80;0.98;;;;;;;32.11;32.61;98620.03;4903408;29;20051;-73
2022/06/06 11:42:18;;;;;;;10.35;1.00;;;;;;;32.15;32.57;98618.44;4935257;29;20047;-71
2022/06/06 11:45:20;;;;;;;3.60;1.02;;;;;;;32.19;32.75;98611.44;4935182;29;20040;-73
2022/06/06 11:48:08;;;;;;;5.00;1.00;;;;;;;32.23;32.39;98595.50;4934860;29;20043;-72
2022/06/06 11:50:58;;;;;;;3.42;1.17;;;;;;;32.28;32.35;98598.25;4919055;29;20139;-72
2022/06/06 11:54:00;;;;;;;3.03;1.08;;;;;;;32.28;32.23;98603.66;4951420;28;20043;-72
2022/06/06 11:56:52;;;;;;;1.70;1.08;;;;;;;32.16;32.14;98608.44;4994346;28;20030;-72
2022/06/06 11:59:29;;;;;;;3.10;1.00;;;;;;;32.04;32.80;98608.59;4972703;28;20584;-72
2022/06/06 12:02:14;;;;;;;;;;;;;;;31.96;32.95;98607.22;4973416;28;20043;-71
2022/06/06 12:05:06;;;;;;;2.72;1.20;;;;;;;31.81;33.32;98610.63;4972764;28;19973;-72
2022/06/06 12:07:59;;;;;;;3.53;1.10;;;;;;;31.65;33.21;98604.31;4940425;28;20034;-73
2022/06/06 12:10:31;;;;;;;2.03;1.20;;;;;;;31.56;33.48;98612.09;4972810;28;20047;-71
2022/06/06 12:13:08;;;;;;;2.35;1.30;;;;;;;31.50;33.75;98601.44;4940189;28;20045;-71
2022/06/06 12:16:12;;;;;;;3.50;1.30;;;;;;;31.32;34.03;98594.56;4956219;28;20051;-71
2022/06/06 12:18:49;;;;;;;4.38;1.52;;;;;;;31.15;34.37;98598.22;4971749;28;20030;-72
2022/06/06 12:21:33;;;;;;;5.20;1.40;;;;;;;30.99;34.71;98593.72;4972677;28;20035;-71
2022/06/06 12:24:18;;;;;;;2.33;1.45;;;;;;;30.90;35.09;98597.91;4957991;28;20039;-71
2022/06/06 12:27:00;;;;;;;2.92;1.50;;;;;;;30.82;35.17;98593.78;4940216;28;20031;-71
2022/06/06 12:29:34;;;;;;;2.28;1.30;;;;;;;30.73;35.69;98587.22;4940871;28;20142;-71
2022/06/06 12:32:19;;;;;;;1.92;1.40;;;;;;;30.67;35.66;98578.28;4972312;28;20070;-72
2022/06/06 12:34:44;;;;;;;5.47;1.40;;;;;;;30.65;35.57;98583.09;4956233;28;20494;-73
2022/06/06 12:37:22;;;;;;;2.45;1.50;;;;;;;30.64;35.62;98573.38;4992794;28;20049;-71
2022/06/06 12:40:03;;;;;;;4.05;1.55;;;;;;;30.61;35.98;98569.31;4993605;28;20409;-71
2022/06/06 12:42:44;;;;;;;2.20;1.58;;;;;;;30.55;35.79;98567.63;4993598;28;20034;-71
2022/06/06 12:45:31;;;;;;;3.80;1.40;;;;;;;30.48;35.99;98567.00;4994025;28;20076;-71
2022/06/06 12:48:30;;;;;;;3.35;1.15;;;;;;;30.33;36.26;98567.63;4993660;28;20033;-71
2022/06/06 12:51:17;;;;;;;1.60;1.10;;;;;;;30.09;37.07;98567.84;4956072;28;20175;-71